createdAt,value
2018-08-17T00:00:54.914Z,98402.00
2018-08-17T00:03:23.358Z,98402.00
2018-08-17T00:05:51.795Z,98401.00
2018-08-17T00:08:20.233Z,98398.00
2018-08-17T00:10:48.667Z,98394.00
2018-08-17T00:13:17.109Z,98394.00
2018-08-17T00:15:45.549Z,98400.00
2018-08-17T00:18:14.078Z,98420.00
2018-08-17T00:20:42.489Z,98403.00
2018-08-17T00:23:10.910Z,98400.00
2018-08-17T00:25:39.397Z,98406.00
2018-08-17T00:28:07.900Z,98405.00
2018-08-17T00:30:36.336Z,98400.00
2018-08-17T00:33:04.922Z,98397.00
2018-08-17T00:35:33.355Z,98408.00
2018-08-17T00:38:01.796Z,98405.00
2018-08-17T00:40:30.626Z,98402.00
2018-08-17T00:42:59.209Z,98404.00
2018-08-17T00:45:27.655Z,98392.00
2018-08-17T00:47:56.091Z,98390.00
2018-08-17T00:50:24.598Z,98398.00
2018-08-17T00:52:53.009Z,98389.00
2018-08-17T00:55:21.422Z,98391.00
2018-08-17T00:57:49.853Z,98389.00
2018-08-17T01:00:18.481Z,98395.00
2018-08-17T01:02:46.902Z,98395.00
2018-08-17T01:05:15.326Z,98397.00
2018-08-17T01:07:43.737Z,98395.00
2018-08-17T01:10:12.165Z,98397.00
2018-08-17T01:12:40.605Z,98397.00
2018-08-17T01:15:09.025Z,98400.00
2018-08-17T01:17:37.437Z,98400.00
2018-08-17T01:20:07.742Z,98397.00
2018-08-17T01:22:36.173Z,98389.00
2018-08-17T01:25:04.710Z,98394.00
2018-08-17T01:27:33.139Z,98392.00
2018-08-17T01:30:01.553Z,98392.00
2018-08-17T01:32:29.990Z,98388.00
2018-08-17T01:34:58.402Z,98391.00
2018-08-17T01:37:26.820Z,98398.00
2018-08-17T01:39:55.231Z,98389.00
2018-08-17T01:42:23.674Z,98394.00
2018-08-17T01:44:52.228Z,98385.00
2018-08-17T01:47:20.649Z,98385.00
2018-08-17T01:49:49.107Z,98390.00
2018-08-17T01:52:17.514Z,98389.00
2018-08-17T01:54:45.935Z,98390.00
2018-08-17T01:57:14.336Z,98379.00
2018-08-17T01:59:42.753Z,98383.00
2018-08-17T02:02:11.185Z,98380.00
2018-08-17T02:04:39.597Z,98382.00
2018-08-17T02:07:08.009Z,98385.00
2018-08-17T02:09:36.418Z,98392.00
2018-08-17T02:12:04.825Z,98383.00
2018-08-17T02:14:33.325Z,98392.00
2018-08-17T02:17:01.904Z,98385.00
2018-08-17T02:19:30.313Z,98391.00
2018-08-17T02:21:58.733Z,98392.00
2018-08-17T02:24:27.189Z,98390.00
2018-08-17T02:26:55.646Z,98390.00
2018-08-17T02:29:24.246Z,98389.00
2018-08-17T02:31:52.667Z,98389.00
2018-08-17T02:34:21.119Z,98390.00
2018-08-17T02:36:49.542Z,98392.00
2018-08-17T02:39:18.000Z,98396.00
2018-08-17T02:41:46.411Z,98393.00
2018-08-17T02:44:14.845Z,98398.00
2018-08-17T02:46:43.241Z,98395.00
2018-08-17T02:49:11.655Z,98385.00
2018-08-17T02:51:40.081Z,98391.00
2018-08-17T02:54:08.488Z,98389.00
2018-08-17T02:56:36.911Z,98383.00
2018-08-17T02:59:05.329Z,98384.00
2018-08-17T03:01:33.781Z,98384.00
2018-08-17T03:04:02.196Z,98381.00
2018-08-17T03:06:30.661Z,98382.00
2018-08-17T03:08:59.081Z,98393.00
2018-08-17T03:11:27.531Z,98383.00
2018-08-17T03:13:56.063Z,98389.00
2018-08-17T03:16:24.690Z,98388.00
2018-08-17T03:18:53.154Z,98389.00
2018-08-17T03:21:21.596Z,98390.00
2018-08-17T03:23:50.027Z,98386.00
2018-08-17T03:26:18.434Z,98396.00
2018-08-17T03:28:46.861Z,98399.00
2018-08-17T03:31:15.283Z,98398.00
2018-08-17T03:33:43.722Z,98405.00
2018-08-17T03:36:12.255Z,98411.00
2018-08-17T03:38:40.680Z,98400.00
2018-08-17T03:41:09.107Z,98399.00
2018-08-17T03:43:37.542Z,98403.00
2018-08-17T03:46:05.971Z,98401.00
2018-08-17T03:48:34.382Z,98406.00
2018-08-17T03:51:02.817Z,98402.00
2018-08-17T03:53:31.388Z,98409.00
2018-08-17T03:55:59.823Z,98404.00
2018-08-17T03:58:28.253Z,98406.00
2018-08-17T04:00:56.681Z,98400.00
2018-08-17T04:03:25.173Z,98400.00
2018-08-17T04:05:53.620Z,98403.00
2018-08-17T04:08:22.053Z,98397.00
2018-08-17T04:10:50.500Z,98404.00
2018-08-17T04:13:19.228Z,98416.00
2018-08-17T04:15:47.656Z,98409.00
2018-08-17T04:18:16.081Z,98406.00
2018-08-17T04:20:44.574Z,98412.00
2018-08-17T04:23:12.998Z,98418.00
2018-08-17T04:25:41.427Z,98422.00
2018-08-17T04:28:10.130Z,98422.00
2018-08-17T04:30:38.561Z,98427.00
2018-08-17T04:33:07.078Z,98429.00
2018-08-17T04:35:35.497Z,98436.00
2018-08-17T04:38:03.976Z,98429.00
2018-08-17T04:40:32.434Z,98431.00
2018-08-17T04:43:01.905Z,98429.00
2018-08-17T04:45:30.429Z,98438.00
2018-08-17T04:47:58.960Z,98443.00
2018-08-17T04:50:27.384Z,98435.00
2018-08-17T04:52:55.845Z,98433.00
2018-08-17T04:55:24.261Z,98436.00
2018-08-17T04:57:52.723Z,98439.00
2018-08-17T05:00:21.148Z,98436.00
2018-08-17T05:02:49.593Z,98436.00
2018-08-17T05:05:18.024Z,98444.00
2018-08-17T05:07:46.430Z,98441.00
2018-08-17T05:10:14.885Z,98447.00
2018-08-17T05:12:43.293Z,98442.00
2018-08-17T05:15:11.701Z,98443.00
2018-08-17T05:17:40.110Z,98446.00
2018-08-17T05:20:08.521Z,98455.00
2018-08-17T05:22:44.522Z,98455.00
2018-08-17T05:25:12.945Z,98449.00
2018-08-17T05:27:41.362Z,98455.00
2018-08-17T05:30:09.773Z,98464.00
2018-08-17T05:32:38.190Z,98472.00
2018-08-17T05:35:06.742Z,98474.00
2018-08-17T05:37:35.331Z,98472.00
2018-08-17T05:40:03.929Z,98477.00
2018-08-17T05:42:32.354Z,98471.00
2018-08-17T05:45:00.795Z,98471.00
2018-08-17T05:47:29.376Z,98478.00
2018-08-17T05:49:57.812Z,98475.00
2018-08-17T05:52:26.577Z,98477.00
2018-08-17T05:54:54.996Z,98476.00
2018-08-17T05:57:24.639Z,98475.00
2018-08-17T05:59:53.151Z,98475.00
2018-08-17T06:02:21.927Z,98474.00
2018-08-17T06:04:50.370Z,98471.00
2018-08-17T06:07:18.833Z,98469.00
2018-08-17T06:09:47.303Z,98474.00
2018-08-17T06:12:15.738Z,98477.00
2018-08-17T06:14:44.322Z,98472.00
2018-08-17T06:17:12.738Z,98479.00
2018-08-17T06:19:41.150Z,98474.00
2018-08-17T06:22:09.735Z,98473.00
2018-08-17T06:24:38.150Z,98470.00
2018-08-17T06:27:06.757Z,98469.00
2018-08-17T06:29:35.578Z,98467.00
2018-08-17T06:32:03.997Z,98460.00
2018-08-17T06:34:32.609Z,98467.00
2018-08-17T06:37:01.053Z,98464.00
2018-08-17T06:39:29.550Z,98468.00
2018-08-17T06:42:16.869Z,98465.00
2018-08-17T06:44:45.917Z,98468.00
2018-08-17T06:47:14.580Z,98467.00
2018-08-17T06:49:43.220Z,98466.00
2018-08-17T06:52:11.630Z,98474.00
2018-08-17T06:54:40.091Z,98475.00
2018-08-17T06:57:08.631Z,98464.00
2018-08-17T06:59:37.038Z,98469.00
2018-08-17T07:02:05.478Z,98477.00
2018-08-17T07:04:33.914Z,98480.00
2018-08-17T07:07:02.338Z,98482.00
2018-08-17T07:09:31.110Z,98477.00
2018-08-17T07:11:59.573Z,98479.00
2018-08-17T07:14:28.415Z,98477.00
2018-08-17T07:16:56.977Z,98482.00
2018-08-17T07:19:25.740Z,98486.00
2018-08-17T07:21:54.165Z,98493.00
2018-08-17T07:24:22.633Z,98485.00
2018-08-17T07:26:51.043Z,98486.00
2018-08-17T07:29:19.449Z,98483.00
2018-08-17T07:31:47.870Z,98474.00
2018-08-17T07:34:16.462Z,98481.00
2018-08-17T07:36:45.125Z,98480.00
2018-08-17T07:39:13.690Z,98483.00
2018-08-17T07:41:43.114Z,98484.00
2018-08-17T07:44:11.478Z,98482.00
2018-08-17T07:46:40.145Z,98489.00
2018-08-17T07:49:09.210Z,98482.00
2018-08-17T07:51:37.694Z,98477.00
2018-08-17T07:54:06.147Z,98483.00
2018-08-17T07:56:35.076Z,98488.00
2018-08-17T07:59:03.634Z,98487.00
2018-08-17T08:01:32.501Z,98488.00
2018-08-17T08:04:00.938Z,98492.00
2018-08-17T08:06:29.534Z,98499.00
2018-08-17T08:08:57.965Z,98487.00
2018-08-17T08:11:26.456Z,98487.00
2018-08-17T08:13:54.886Z,98491.00
2018-08-17T08:16:23.305Z,98495.00
2018-08-17T08:18:52.958Z,98492.00
2018-08-17T08:21:21.395Z,98495.00
2018-08-17T08:23:49.847Z,98489.00
2018-08-17T08:26:18.341Z,98488.00
2018-08-17T08:28:46.773Z,98488.00
2018-08-17T08:31:15.186Z,98496.00
2018-08-17T08:33:43.623Z,98495.00
2018-08-17T08:36:12.046Z,98491.00
2018-08-17T08:38:40.468Z,98501.00
2018-08-17T08:41:08.920Z,98483.00
2018-08-17T08:43:37.337Z,98493.00
2018-08-17T08:46:05.821Z,98494.00
2018-08-17T08:48:34.321Z,98498.00
2018-08-17T08:51:03.097Z,98496.00
2018-08-17T08:53:31.554Z,98493.00
2018-08-17T08:56:00.794Z,98491.00
2018-08-17T08:58:29.867Z,98496.00
2018-08-17T09:00:59.187Z,98489.00
2018-08-17T09:03:28.432Z,98485.00
2018-08-17T09:05:57.608Z,98492.00
2018-08-17T09:08:27.304Z,98487.00
2018-08-17T09:10:56.548Z,98490.00
2018-08-17T09:13:25.696Z,98491.00
2018-08-17T09:15:55.918Z,98493.00
2018-08-17T09:18:25.073Z,98496.00
2018-08-17T09:20:54.215Z,98490.00
2018-08-17T09:23:23.434Z,98481.00
2018-08-17T09:25:52.629Z,98483.00
2018-08-17T09:28:21.690Z,98483.00
2018-08-17T09:30:50.856Z,98481.00
2018-08-17T09:33:20.116Z,98485.00
2018-08-17T09:35:49.234Z,98478.00
2018-08-17T09:38:18.470Z,98471.00
2018-08-17T09:40:47.573Z,98480.00
2018-08-17T09:43:17.100Z,98468.00
2018-08-17T09:45:46.298Z,98478.00
2018-08-17T09:48:15.372Z,98459.00
2018-08-17T09:50:44.493Z,98464.00
2018-08-17T09:53:13.489Z,98471.00
2018-08-17T09:55:42.575Z,98466.00
2018-08-17T09:58:11.623Z,98466.00
2018-08-17T10:00:44.754Z,98458.00
2018-08-17T10:03:18.988Z,98457.00
2018-08-17T10:05:48.314Z,98457.00
2018-08-17T10:08:22.653Z,98456.00
2018-08-17T10:10:53.744Z,98464.00
2018-08-17T10:13:23.136Z,98453.00
2018-08-17T10:15:52.035Z,98451.00
2018-08-17T10:18:22.737Z,98451.00
2018-08-17T10:20:51.310Z,98447.00
2018-08-17T10:23:25.378Z,98456.00
2018-08-17T10:25:54.651Z,98453.00
2018-08-17T10:28:23.756Z,98464.00
2018-08-17T10:30:53.325Z,98462.00
2018-08-17T10:33:23.603Z,98451.00
2018-08-17T10:35:52.748Z,98452.00
2018-08-17T10:38:21.994Z,98465.00
2018-08-17T10:40:51.249Z,98459.00
2018-08-17T10:43:20.489Z,98453.00
2018-08-17T10:45:49.702Z,98457.00
2018-08-17T10:48:18.929Z,98459.00
2018-08-17T10:50:48.503Z,98451.00
2018-08-17T10:53:18.343Z,98442.00
2018-08-17T10:55:49.823Z,98437.00
2018-08-17T10:58:19.182Z,98448.00
2018-08-17T11:00:48.178Z,98446.00
2018-08-17T11:03:17.396Z,98441.00
2018-08-17T11:05:46.439Z,98444.00
2018-08-17T11:08:15.777Z,98440.00
2018-08-17T11:10:44.798Z,98444.00
2018-08-17T11:13:13.965Z,98441.00
2018-08-17T11:15:43.103Z,98448.00
2018-08-17T11:18:12.113Z,98450.00
2018-08-17T11:20:41.155Z,98442.00
2018-08-17T11:23:10.187Z,98435.00
2018-08-17T11:25:39.256Z,98433.00
2018-08-17T11:28:08.562Z,98437.00
2018-08-17T11:30:37.538Z,98435.00
2018-08-17T11:33:06.771Z,98440.00
2018-08-17T11:35:35.810Z,98448.00
2018-08-17T11:38:05.150Z,98442.00
2018-08-17T11:40:34.246Z,98438.00
2018-08-17T11:43:03.317Z,98439.00
2018-08-17T11:45:32.659Z,98446.00
2018-08-17T11:48:02.001Z,98438.00
2018-08-17T11:50:31.296Z,98443.00
2018-08-17T11:53:00.488Z,98436.00
2018-08-17T11:55:32.012Z,98430.00
2018-08-17T11:58:01.090Z,98425.00
2018-08-17T12:00:35.847Z,98425.00
2018-08-17T12:03:06.522Z,98422.00
2018-08-17T12:05:35.806Z,98416.00
2018-08-17T12:08:05.225Z,98414.00
2018-08-17T12:10:34.397Z,98411.00
2018-08-17T12:13:08.701Z,98407.00
2018-08-17T12:15:45.021Z,98397.00
2018-08-17T12:18:14.393Z,98413.00
2018-08-17T12:20:45.047Z,98398.00
2018-08-17T12:23:14.363Z,98399.00
2018-08-17T12:25:49.495Z,98401.00
2018-08-17T12:28:18.630Z,98397.00
2018-08-17T12:30:47.596Z,98398.00
2018-08-17T12:33:16.899Z,98398.00
2018-08-17T12:35:46.054Z,98401.00
2018-08-17T12:38:15.888Z,98395.00
2018-08-17T12:40:47.201Z,98396.00
2018-08-17T12:43:19.644Z,98400.00
2018-08-17T12:45:48.882Z,98387.00
2018-08-17T12:48:18.169Z,98393.00
2018-08-17T12:50:47.260Z,98389.00
2018-08-17T12:53:16.473Z,98391.00
2018-08-17T12:55:56.045Z,98396.00
2018-08-17T12:58:25.515Z,98391.00
2018-08-17T13:00:54.702Z,98388.00
2018-08-17T13:03:24.067Z,98390.00
2018-08-17T13:05:53.295Z,98380.00
2018-08-17T13:08:22.576Z,98382.00
2018-08-17T13:10:52.000Z,98375.00
2018-08-17T13:13:21.367Z,98389.00
2018-08-17T13:15:54.730Z,98378.00
2018-08-17T13:18:24.687Z,98397.00
2018-08-17T13:20:53.872Z,98391.00
2018-08-17T13:23:23.019Z,98383.00
2018-08-17T13:25:52.222Z,98383.00
2018-08-17T13:28:21.571Z,98384.00
2018-08-17T13:30:50.708Z,98387.00
2018-08-17T13:33:19.848Z,98384.00
2018-08-17T13:35:48.893Z,98380.00
2018-08-17T13:38:18.013Z,98376.00
2018-08-17T13:40:47.030Z,98378.00
2018-08-17T13:43:16.084Z,98370.00
2018-08-17T13:45:45.108Z,98378.00
2018-08-17T13:48:14.225Z,98367.00
2018-08-17T13:50:43.449Z,98378.00
2018-08-17T13:53:11.950Z,98373.00
2018-08-17T13:55:40.389Z,98371.00
2018-08-17T13:58:08.941Z,98378.00
2018-08-17T14:00:37.564Z,98367.00
2018-08-17T14:03:06.757Z,98371.00
2018-08-17T14:05:35.848Z,98364.00
2018-08-17T14:08:05.175Z,98369.00
2018-08-17T14:10:34.370Z,98355.00
2018-08-17T14:13:03.489Z,98361.00
2018-08-17T14:15:32.637Z,98358.00
2018-08-17T14:18:01.952Z,98359.00
2018-08-17T14:20:31.279Z,98360.00
2018-08-17T14:23:00.618Z,98354.00
2018-08-17T14:25:29.910Z,98351.00
2018-08-17T14:28:00.445Z,98340.00
2018-08-17T14:30:29.600Z,98348.00
2018-08-17T14:32:58.902Z,98349.00
2018-08-17T14:35:28.022Z,98349.00
2018-08-17T14:37:57.302Z,98341.00
2018-08-17T14:40:26.543Z,98342.00
2018-08-17T14:42:56.286Z,98332.00
2018-08-17T14:45:25.300Z,98334.00
2018-08-17T14:47:54.511Z,98329.00
2018-08-17T14:50:23.663Z,98323.00
2018-08-17T14:52:52.640Z,98324.00
2018-08-17T14:55:22.046Z,98324.00
2018-08-17T14:57:51.259Z,98322.00
2018-08-17T15:00:20.608Z,98324.00
2018-08-17T15:02:49.747Z,98319.00
2018-08-17T15:05:18.756Z,98321.00
2018-08-17T15:07:48.242Z,98319.00
2018-08-17T15:10:19.195Z,98318.00
2018-08-17T15:12:48.501Z,98315.00
2018-08-17T15:15:17.518Z,98322.00
2018-08-17T15:17:46.911Z,98318.00
2018-08-17T15:20:16.212Z,98316.00
2018-08-17T15:22:45.234Z,98321.00
2018-08-17T15:25:14.427Z,98314.00
2018-08-17T15:27:43.479Z,98330.00
2018-08-17T15:30:13.088Z,98312.00
2018-08-17T15:32:42.773Z,98304.00
2018-08-17T15:35:12.096Z,98308.00
2018-08-17T15:37:41.604Z,98304.00
2018-08-17T15:40:12.219Z,98298.00
2018-08-17T15:42:41.766Z,98295.00
2018-08-17T15:45:11.418Z,98302.00
2018-08-17T15:47:40.472Z,98300.00
2018-08-17T15:50:13.274Z,98302.00
2018-08-17T15:52:42.797Z,98298.00
2018-08-17T15:55:14.189Z,98290.00
2018-08-17T15:57:43.499Z,98293.00
2018-08-17T16:00:14.431Z,98295.00
2018-08-17T16:02:43.834Z,98299.00
2018-08-17T16:05:12.978Z,98288.00
2018-08-17T16:07:42.255Z,98291.00
2018-08-17T16:10:13.028Z,98295.00
2018-08-17T16:12:41.994Z,98301.00
2018-08-17T16:15:11.485Z,98302.00
2018-08-17T16:17:41.072Z,98293.00
2018-08-17T16:20:11.577Z,98300.00
2018-08-17T16:22:41.033Z,98301.00
2018-08-17T16:25:11.092Z,98313.00
2018-08-17T16:27:40.802Z,98299.00
2018-08-17T16:30:12.815Z,98293.00
2018-08-17T16:32:42.094Z,98297.00
2018-08-17T16:35:11.391Z,98299.00
2018-08-17T16:37:43.473Z,98295.00
2018-08-17T16:40:12.509Z,98302.00
2018-08-17T16:42:41.801Z,98310.00
2018-08-17T16:45:11.146Z,98291.00
2018-08-17T16:47:40.576Z,98296.00
2018-08-17T16:50:09.394Z,98295.00
2018-08-17T16:52:37.926Z,98300.00
2018-08-17T16:55:06.378Z,98303.00
2018-08-17T16:57:35.207Z,98308.00
2018-08-17T17:00:04.633Z,98304.00
2018-08-17T17:02:33.079Z,98312.00
2018-08-17T17:05:01.530Z,98308.00
2018-08-17T17:07:31.767Z,98316.00
2018-08-17T17:10:00.876Z,98316.00
2018-08-17T17:12:29.680Z,98318.00
2018-08-17T17:15:22.572Z,98320.00
2018-08-17T17:17:58.146Z,98318.00
2018-08-17T17:20:32.028Z,98328.00
2018-08-17T17:23:00.540Z,98330.00
2018-08-17T17:25:29.870Z,98328.00
2018-08-17T17:27:59.490Z,98331.00
2018-08-17T17:30:38.191Z,98340.00
2018-08-17T17:33:07.678Z,98337.00
2018-08-17T17:35:37.510Z,98342.00
2018-08-17T17:38:06.481Z,98350.00
2018-08-17T17:40:34.888Z,98367.00
2018-08-17T17:43:04.001Z,98355.00
2018-08-17T17:45:33.389Z,98367.00
2018-08-17T17:48:03.230Z,98376.00
2018-08-17T17:50:32.542Z,98385.00
2018-08-17T17:53:06.445Z,98380.00
2018-08-17T17:55:43.237Z,98385.00
2018-08-17T17:58:12.983Z,98395.00
2018-08-17T18:00:46.262Z,98387.00
2018-08-17T18:03:15.489Z,98395.00
2018-08-17T18:05:44.830Z,98390.00
2018-08-17T18:08:19.027Z,98398.00
2018-08-17T18:10:49.064Z,98397.00
2018-08-17T18:13:18.272Z,98388.00
2018-08-17T18:15:47.326Z,98399.00
2018-08-17T18:18:16.527Z,98401.00
2018-08-17T18:20:45.911Z,98397.00
2018-08-17T18:23:14.908Z,98407.00
2018-08-17T18:25:44.251Z,98413.00
2018-08-17T18:28:13.686Z,98415.00
2018-08-17T18:30:42.980Z,98421.00
2018-08-17T18:33:12.495Z,98429.00
2018-08-17T18:35:41.772Z,98426.00
2018-08-17T18:38:11.310Z,98430.00
2018-08-17T18:40:40.660Z,98438.00
2018-08-17T18:43:10.068Z,98443.00
2018-08-17T18:45:39.235Z,98458.00
2018-08-17T18:48:08.390Z,98451.00
2018-08-17T18:50:37.570Z,98455.00
2018-08-17T18:53:06.747Z,98470.00
2018-08-17T18:55:35.911Z,98475.00
2018-08-17T18:58:05.140Z,98473.00
2018-08-17T19:00:34.346Z,98476.00
2018-08-17T19:03:03.744Z,98474.00
2018-08-17T19:05:33.161Z,98491.00
2018-08-17T19:08:02.410Z,98489.00
2018-08-17T19:10:31.616Z,98500.00
2018-08-17T19:13:00.788Z,98504.00
2018-08-17T19:15:31.082Z,98541.00
2018-08-17T19:18:00.278Z,98551.00
2018-08-17T19:20:29.327Z,98564.00
2018-08-17T19:22:58.838Z,98559.00
2018-08-17T19:25:28.118Z,98582.00
2018-08-17T19:27:57.452Z,98591.00
2018-08-17T19:30:31.572Z,98606.00
2018-08-17T19:33:05.303Z,98604.00
2018-08-17T19:35:34.393Z,98612.00
2018-08-17T19:38:03.758Z,98615.00
2018-08-17T19:40:32.906Z,98626.00
2018-08-17T19:43:02.114Z,98624.00
2018-08-17T19:45:31.281Z,98623.00
2018-08-17T19:48:00.798Z,98619.00
2018-08-17T19:50:30.268Z,98628.00
2018-08-17T19:52:59.446Z,98626.00
2018-08-17T19:55:28.577Z,98624.00
2018-08-17T19:57:57.660Z,98622.00
2018-08-17T20:00:26.778Z,98618.00
2018-08-17T20:02:56.045Z,98621.00
2018-08-17T20:05:25.281Z,98623.00
2018-08-17T20:07:54.898Z,98624.00
2018-08-17T20:10:24.290Z,98630.00
2018-08-17T20:12:53.698Z,98631.00
2018-08-17T20:15:22.918Z,98640.00
2018-08-17T20:17:52.705Z,98648.00
2018-08-17T20:20:22.074Z,98655.00
2018-08-17T20:22:51.816Z,98647.00
2018-08-17T20:25:21.165Z,98657.00
2018-08-17T20:27:50.337Z,98656.00
2018-08-17T20:30:24.515Z,98664.00
2018-08-17T20:32:53.617Z,98668.00
2018-08-17T20:35:22.234Z,98657.00
2018-08-17T20:37:58.102Z,98665.00
2018-08-17T20:40:26.946Z,98664.00
2018-08-17T20:42:56.132Z,98675.00
2018-08-17T20:45:26.191Z,98675.00
2018-08-17T20:47:54.958Z,98680.00
2018-08-17T20:50:23.647Z,98681.00
2018-08-17T20:52:57.565Z,98677.00
2018-08-17T20:55:26.444Z,98673.00
2018-08-17T20:57:56.264Z,98690.00
2018-08-17T21:00:26.512Z,98693.00
2018-08-17T21:02:55.475Z,98692.00
2018-08-17T21:05:23.999Z,98682.00
2018-08-17T21:07:52.570Z,98680.00
2018-08-17T21:10:21.251Z,98680.00
2018-08-17T21:12:50.916Z,98678.00
2018-08-17T21:15:19.451Z,98689.00
2018-08-17T21:17:48.303Z,98685.00
2018-08-17T21:20:16.977Z,98693.00
2018-08-17T21:22:45.506Z,98692.00
2018-08-17T21:25:13.942Z,98705.00
2018-08-17T21:27:42.424Z,98690.00
2018-08-17T21:30:11.311Z,98694.00
2018-08-17T21:32:39.883Z,98694.00
2018-08-17T21:35:08.633Z,98690.00
2018-08-17T21:37:37.284Z,98696.00
2018-08-17T21:40:07.890Z,98698.00
2018-08-17T21:42:36.290Z,98696.00
2018-08-17T21:45:05.169Z,98699.00
2018-08-17T21:47:33.576Z,98694.00
2018-08-17T21:50:06.197Z,98698.00
2018-08-17T21:52:34.624Z,98702.00
2018-08-17T21:55:03.263Z,98698.00
2018-08-17T21:57:31.761Z,98693.00
2018-08-17T22:00:00.173Z,98693.00
2018-08-17T22:02:28.584Z,98689.00
2018-08-17T22:04:57.097Z,98679.00
2018-08-17T22:07:25.708Z,98682.00
2018-08-17T22:09:54.500Z,98684.00
2018-08-17T22:12:22.948Z,98685.00
2018-08-17T22:14:51.345Z,98696.00
2018-08-17T22:17:32.165Z,98698.00
2018-08-17T22:20:00.885Z,98694.00
2018-08-17T22:22:29.301Z,98710.00
2018-08-17T22:24:58.571Z,98712.00
2018-08-17T22:27:28.111Z,98712.00
2018-08-17T22:29:57.586Z,98711.00
2018-08-17T22:32:26.248Z,98713.00
2018-08-17T22:34:54.988Z,98725.00
2018-08-17T22:37:23.422Z,98717.00
2018-08-17T22:39:51.852Z,98719.00
2018-08-17T22:42:21.805Z,98717.00
2018-08-17T22:44:50.697Z,98719.00
2018-08-17T22:47:22.004Z,98724.00
2018-08-17T22:49:52.464Z,98720.00
2018-08-17T22:52:21.028Z,98729.00
2018-08-17T22:54:55.447Z,98729.00
2018-08-17T22:57:23.895Z,98731.00
2018-08-17T23:00:08.037Z,98735.00
2018-08-17T23:02:36.457Z,98733.00
2018-08-17T23:05:05.675Z,98740.00
2018-08-17T23:07:34.128Z,98743.00
2018-08-17T23:10:02.955Z,98740.00
2018-08-17T23:12:31.367Z,98744.00
2018-08-17T23:14:59.790Z,98745.00
2018-08-17T23:17:28.242Z,98736.00
2018-08-17T23:19:56.967Z,98751.00
2018-08-17T23:22:25.373Z,98751.00
2018-08-17T23:24:53.813Z,98746.00
2018-08-17T23:27:22.332Z,98768.00
2018-08-17T23:29:50.789Z,98766.00
2018-08-17T23:32:19.192Z,98771.00
2018-08-17T23:34:47.612Z,98777.00
2018-08-17T23:37:16.122Z,98771.00
2018-08-17T23:39:44.546Z,98778.00
2018-08-17T23:42:12.997Z,98798.00
2018-08-17T23:44:41.401Z,98795.00
2018-08-17T23:47:09.854Z,98795.00
2018-08-17T23:49:38.279Z,98793.00
2018-08-17T23:52:06.768Z,98795.00
2018-08-17T23:54:35.186Z,98794.00
2018-08-17T23:57:03.620Z,98800.00
2018-08-17T23:59:32.085Z,98800.00
